createdAt,value
2023-02-15T16:30:24.037Z,427.00
2023-02-15T16:31:24.046Z,424.00
2023-02-15T16:32:23.850Z,419.00
2023-02-15T16:33:23.834Z,418.00
2023-02-15T16:34:23.817Z,416.00
2023-02-15T16:35:23.816Z,416.00
2023-02-15T16:36:23.798Z,419.00
2023-02-15T16:37:23.789Z,417.00
2023-02-15T16:38:23.823Z,415.00
2023-02-15T16:39:23.796Z,417.00
2023-02-15T16:40:23.761Z,418.00
2023-02-15T16:41:23.753Z,419.00
2023-02-15T16:42:23.751Z,420.00
2023-02-15T16:43:23.736Z,421.00
2023-02-15T16:44:23.726Z,427.00
2023-02-15T16:45:23.711Z,428.00
2023-02-15T16:46:23.741Z,427.00
2023-02-15T16:47:23.709Z,427.00
2023-02-15T16:48:23.689Z,428.00
2023-02-15T16:49:23.683Z,426.00
2023-02-15T16:50:23.674Z,425.00
2023-02-15T16:51:23.658Z,423.00
2023-02-15T16:52:23.681Z,421.00
2023-02-15T16:53:23.658Z,423.00
2023-02-15T16:54:23.639Z,420.00
2023-02-15T16:55:23.654Z,421.00
2023-02-15T16:56:23.626Z,422.00
2023-02-15T16:57:23.603Z,420.00
2023-02-15T16:58:23.596Z,421.00
2023-02-15T16:59:23.588Z,420.00
2023-02-15T17:00:23.590Z,421.00
2023-02-15T17:01:23.654Z,420.00
2023-02-15T17:02:42.961Z,421.00
2023-02-15T17:03:23.590Z,419.00
2023-02-15T17:04:23.554Z,419.00
2023-02-15T17:05:23.551Z,417.00
2023-02-15T17:06:23.536Z,419.00
2023-02-15T17:07:23.526Z,421.00
2023-02-15T17:08:23.507Z,423.00
2023-02-15T17:09:23.504Z,421.00
2023-02-15T17:10:23.489Z,419.00
2023-02-15T17:11:23.513Z,420.00
2023-02-15T17:12:23.476Z,421.00
2023-02-15T17:13:23.460Z,425.00
2023-02-15T17:14:23.457Z,426.00
2023-02-15T17:15:23.443Z,426.00
2023-02-15T17:16:23.516Z,426.00
2023-02-15T17:17:23.431Z,426.00
2023-02-15T17:18:23.424Z,426.00
2023-02-15T17:19:23.407Z,426.00
2023-02-15T17:20:23.401Z,426.00
2023-02-15T17:21:23.388Z,428.00
2023-02-15T17:22:23.382Z,428.00
2023-02-15T17:23:23.375Z,424.00
2023-02-15T17:24:23.363Z,422.00
2023-02-15T17:25:23.360Z,420.00
2023-02-15T17:26:23.370Z,417.00
2023-02-15T17:27:23.366Z,418.00
2023-02-15T17:28:23.400Z,417.00
2023-02-15T17:29:23.324Z,418.00
2023-02-15T17:30:23.403Z,418.00
2023-02-15T17:31:23.397Z,419.00
2023-02-15T17:32:23.434Z,420.00
2023-02-15T17:33:23.296Z,420.00
2023-02-15T17:34:23.278Z,422.00
2023-02-15T17:35:23.265Z,422.00
2023-02-15T17:36:23.282Z,422.00
2023-02-15T17:37:23.256Z,417.00
2023-02-15T17:38:23.240Z,421.00
2023-02-15T17:39:23.264Z,420.00
2023-02-15T17:40:23.228Z,422.00
2023-02-15T17:41:23.213Z,425.00
2023-02-15T17:42:23.202Z,425.00
2023-02-15T17:43:23.220Z,425.00
2023-02-15T17:44:23.200Z,423.00
2023-02-15T17:45:23.231Z,422.00
2023-02-15T17:46:23.183Z,422.00
2023-02-15T17:47:23.159Z,422.00
2023-02-15T17:48:23.153Z,425.00
2023-02-15T17:49:23.150Z,427.00
2023-02-15T17:50:23.134Z,426.00
2023-02-15T17:51:23.125Z,425.00
2023-02-15T17:52:23.118Z,426.00
2023-02-15T17:53:23.137Z,428.00
2023-02-15T17:54:23.107Z,429.00
2023-02-15T17:55:23.094Z,430.00
2023-02-15T17:56:23.146Z,429.00
2023-02-15T17:57:23.073Z,426.00
2023-02-15T17:58:23.060Z,426.00
2023-02-15T17:59:23.083Z,426.00
2023-02-15T18:00:23.048Z,425.00
2023-02-15T18:01:23.056Z,424.00
2023-02-15T18:02:23.033Z,425.00
2023-02-15T18:03:23.026Z,424.00
2023-02-15T18:04:23.039Z,424.00
2023-02-15T18:05:23.005Z,423.00
2023-02-15T18:06:23.007Z,423.00
2023-02-15T18:07:22.991Z,421.00
2023-02-15T18:08:22.973Z,421.00
2023-02-15T18:09:22.969Z,419.00
2023-02-15T18:10:22.961Z,418.00
2023-02-15T18:11:22.963Z,421.00
2023-02-15T18:12:22.957Z,424.00
2023-02-15T18:13:22.948Z,422.00
2023-02-15T18:14:22.927Z,420.00
2023-02-15T18:15:22.939Z,421.00
2023-02-15T18:16:22.974Z,421.00
2023-02-15T18:17:22.902Z,422.00
2023-02-15T18:18:22.898Z,421.00
2023-02-15T18:19:22.915Z,417.00
2023-02-15T18:20:22.874Z,417.00
2023-02-15T18:21:22.867Z,419.00
2023-02-15T18:22:22.861Z,422.00
2023-02-15T18:23:22.845Z,422.00
2023-02-15T18:24:22.838Z,423.00
2023-02-15T18:25:22.833Z,424.00
2023-02-15T18:26:22.823Z,422.00
2023-02-15T18:27:22.814Z,422.00
2023-02-15T18:28:22.812Z,419.00
2023-02-15T18:29:22.788Z,417.00
2023-02-15T18:30:22.806Z,417.00
2023-02-15T18:31:22.968Z,416.00
2023-02-15T18:32:22.860Z,414.00
2023-02-15T18:33:22.757Z,414.00
2023-02-15T18:34:22.745Z,417.00
2023-02-15T18:35:22.745Z,416.00
2023-02-15T18:36:22.726Z,416.00
2023-02-15T18:37:22.710Z,408.00
2023-02-15T18:38:22.710Z,415.00
